createdAt,value
2022-12-18T00:02:02.699Z,89
2022-12-18T00:07:04.591Z,90
2022-12-18T00:17:08.644Z,89
2022-12-18T00:22:10.007Z,88
2022-12-18T00:27:11.129Z,88
2022-12-18T00:32:12.956Z,87
2022-12-18T00:37:19.821Z,87
2022-12-18T00:42:15.946Z,87
2022-12-18T00:47:17.657Z,87
2022-12-18T00:52:18.784Z,87
2022-12-18T00:57:20.592Z,87
2022-12-18T01:02:22.168Z,87
2022-12-18T01:07:23.954Z,88
2022-12-18T01:12:25.410Z,88
2022-12-18T01:17:26.758Z,87
2022-12-18T01:22:28.863Z,87
2022-12-18T01:27:30.893Z,87
2022-12-18T01:32:32.248Z,87
2022-12-18T01:37:34.315Z,88
2022-12-18T01:42:36.166Z,88
2022-12-18T01:47:38.189Z,88
2022-12-18T01:52:39.609Z,88
2022-12-18T01:57:41.687Z,88
2022-12-18T02:02:43.129Z,88
2022-12-18T02:07:44.820Z,88
2022-12-18T02:12:46.211Z,89
2022-12-18T02:17:47.891Z,89
2022-12-18T02:22:49.727Z,89
2022-12-18T02:27:52.091Z,89
2022-12-18T02:32:54.036Z,89
2022-12-18T02:37:55.834Z,89
2022-12-18T02:42:57.998Z,88
2022-12-18T02:47:59.676Z,88
2022-12-18T02:53:01.494Z,87
2022-12-18T02:58:03.186Z,88
2022-12-18T03:03:04.207Z,87
2022-12-18T03:08:05.650Z,87
2022-12-18T03:13:07.000Z,87
2022-12-18T03:18:08.482Z,87
2022-12-18T03:23:10.607Z,88
2022-12-18T03:28:12.787Z,89
2022-12-18T03:33:14.411Z,90
2022-12-18T03:38:16.319Z,90
2022-12-18T03:43:18.083Z,91
2022-12-18T03:48:19.705Z,91
2022-12-18T03:53:20.910Z,91
2022-12-18T03:58:22.991Z,90
2022-12-18T04:03:26.539Z,89
2022-12-18T04:08:25.551Z,89
2022-12-18T04:13:27.344Z,89
2022-12-18T04:18:28.671Z,89
2022-12-18T04:23:30.146Z,89
2022-12-18T04:28:31.435Z,88
2022-12-18T04:33:32.753Z,89
2022-12-18T04:38:34.937Z,90
2022-12-18T04:43:36.769Z,90
2022-12-18T04:48:37.636Z,90
2022-12-18T04:53:39.168Z,90
2022-12-18T04:58:40.845Z,90
2022-12-18T05:03:42.475Z,90
2022-12-18T05:08:44.215Z,90
2022-12-18T05:13:46.144Z,89
2022-12-18T05:18:48.054Z,90
2022-12-18T05:23:49.788Z,90
2022-12-18T05:28:51.693Z,90
2022-12-18T05:33:53.195Z,90
2022-12-18T05:38:54.887Z,90
2022-12-18T05:43:56.176Z,89
2022-12-18T05:48:57.885Z,89
2022-12-18T05:53:59.163Z,88
2022-12-18T05:59:01.077Z,88
2022-12-18T06:04:02.343Z,88
2022-12-18T06:09:03.731Z,88
2022-12-18T06:14:11.288Z,87
2022-12-18T06:19:12.875Z,87
2022-12-18T06:24:14.884Z,87
2022-12-18T06:29:16.978Z,88
2022-12-18T06:34:18.219Z,88
2022-12-18T06:39:19.607Z,89
2022-12-18T06:44:21.223Z,89
2022-12-18T06:49:26.171Z,89
2022-12-18T06:54:24.636Z,89
2022-12-18T06:59:26.450Z,89
2022-12-18T07:04:27.913Z,89
2022-12-18T07:09:29.136Z,88
2022-12-18T07:14:31.128Z,88
2022-12-18T07:19:32.766Z,88
2022-12-18T07:24:34.731Z,87
2022-12-18T07:29:36.582Z,86
2022-12-18T07:34:37.945Z,87
2022-12-18T07:39:39.131Z,87
2022-12-18T07:44:40.487Z,86
2022-12-18T07:49:42.021Z,86
2022-12-18T07:54:43.593Z,86
2022-12-18T07:59:45.604Z,87
2022-12-18T08:04:47.644Z,87
2022-12-18T08:09:49.392Z,88
2022-12-18T08:14:50.751Z,88
2022-12-18T08:19:52.366Z,86
2022-12-18T08:24:54.066Z,87
2022-12-18T08:29:55.457Z,87
2022-12-18T08:34:56.631Z,86
2022-12-18T08:39:57.947Z,85
2022-12-18T08:44:59.323Z,85
2022-12-18T08:50:01.078Z,85
2022-12-18T08:55:02.392Z,84
2022-12-18T09:00:04.702Z,84
2022-12-18T09:05:06.746Z,84
2022-12-18T09:10:08.178Z,83
2022-12-18T09:15:10.258Z,83
2022-12-18T09:20:11.834Z,83
2022-12-18T09:25:13.275Z,82
2022-12-18T09:30:15.351Z,82
2022-12-18T09:35:17.170Z,82
2022-12-18T09:40:18.834Z,83
2022-12-18T09:45:20.202Z,82
2022-12-18T09:50:22.263Z,83
2022-12-18T09:55:23.881Z,83
2022-12-18T10:00:25.868Z,82
2022-12-18T10:05:27.320Z,82
2022-12-18T10:10:29.267Z,82
2022-12-18T10:15:30.777Z,82
2022-12-18T10:20:32.275Z,82
2022-12-18T10:25:34.297Z,82
2022-12-18T10:30:36.007Z,82
2022-12-18T10:35:37.463Z,83
2022-12-18T10:40:38.842Z,82
2022-12-18T10:45:40.600Z,81
2022-12-18T10:51:09.529Z,81
2022-12-18T11:10:47.865Z,80
2022-12-18T11:25:53.322Z,80
2022-12-18T11:40:57.931Z,80
2022-12-18T11:56:03.383Z,81
2022-12-18T12:06:06.187Z,81
2022-12-18T12:11:07.420Z,81
2022-12-18T12:21:10.896Z,80
2022-12-18T12:26:12.747Z,79
2022-12-18T12:31:14.184Z,81
2022-12-18T12:36:15.331Z,81
2022-12-18T12:41:17.406Z,82
2022-12-18T12:46:19.777Z,81
2022-12-18T12:51:20.882Z,82
2022-12-18T12:56:22.879Z,82
2022-12-18T13:01:24.901Z,80
2022-12-18T13:06:25.826Z,79
2022-12-18T13:11:27.293Z,80
2022-12-18T13:16:29.422Z,80
2022-12-18T13:21:30.926Z,80
2022-12-18T13:26:32.299Z,79
2022-12-18T13:31:39.906Z,80
2022-12-18T13:36:36.220Z,80
2022-12-18T13:41:37.134Z,80
2022-12-18T13:46:39.142Z,81
2022-12-18T13:51:40.935Z,81
2022-12-18T13:56:42.357Z,82
2022-12-18T14:01:43.759Z,81
2022-12-18T14:06:45.188Z,82
2022-12-18T14:11:46.234Z,82
2022-12-18T14:16:48.151Z,82
2022-12-18T14:21:50.403Z,82
2022-12-18T14:26:51.487Z,83
2022-12-18T14:31:53.458Z,83
2022-12-18T14:36:54.917Z,83
2022-12-18T14:41:56.458Z,83
2022-12-18T14:46:58.712Z,83
2022-12-18T14:52:05.860Z,83
2022-12-18T14:57:02.045Z,83
2022-12-18T15:02:03.466Z,84
2022-12-18T15:07:04.576Z,84
2022-12-18T15:12:06.268Z,84
2022-12-18T15:17:08.298Z,84
2022-12-18T15:22:10.351Z,86
2022-12-18T15:27:11.738Z,85
2022-12-18T15:32:13.153Z,85
2022-12-18T15:37:14.636Z,85
2022-12-18T15:42:16.581Z,85
2022-12-18T15:47:17.953Z,85
2022-12-18T15:52:19.353Z,84
2022-12-18T15:57:21.275Z,85
2022-12-18T16:02:22.761Z,85
2022-12-18T16:07:24.693Z,84
2022-12-18T16:12:26.297Z,84
2022-12-18T16:17:28.132Z,84
2022-12-18T16:22:30.228Z,84
2022-12-18T16:27:32.449Z,84
2022-12-18T16:32:33.924Z,84
2022-12-18T16:37:35.929Z,83
2022-12-18T16:42:37.965Z,84
2022-12-18T16:47:39.584Z,84
2022-12-18T16:52:41.653Z,84
2022-12-18T16:57:43.727Z,84
2022-12-18T17:02:45.710Z,84
2022-12-18T17:07:47.022Z,84
2022-12-18T17:12:49.032Z,84
2022-12-18T17:17:50.143Z,84
2022-12-18T17:22:51.724Z,84
2022-12-18T17:27:53.861Z,84
2022-12-18T17:32:55.330Z,85
2022-12-18T17:37:56.681Z,85
2022-12-18T17:42:58.383Z,84
2022-12-18T17:48:00.265Z,85
2022-12-18T17:53:02.283Z,86
2022-12-18T17:58:04.562Z,86
2022-12-18T18:03:05.953Z,86
2022-12-18T18:08:07.838Z,86
2022-12-18T18:13:09.954Z,85
2022-12-18T18:18:11.607Z,85
2022-12-18T18:23:13.039Z,86
2022-12-18T18:28:14.847Z,85
2022-12-18T18:33:16.400Z,85
2022-12-18T18:38:18.191Z,85
2022-12-18T18:43:19.693Z,85
2022-12-18T18:48:21.137Z,85
2022-12-18T18:53:22.670Z,86
2022-12-18T18:58:24.464Z,86
2022-12-18T19:03:25.574Z,86
2022-12-18T19:08:26.782Z,87
2022-12-18T19:13:28.178Z,88
2022-12-18T19:18:29.769Z,88
2022-12-18T19:23:30.975Z,87
2022-12-18T19:28:32.759Z,87
2022-12-18T19:33:42.711Z,86
2022-12-18T19:38:35.497Z,87
2022-12-18T19:43:43.371Z,88
2022-12-18T19:48:39.120Z,89
2022-12-18T19:53:40.612Z,89
2022-12-18T19:58:42.977Z,88
2022-12-18T20:03:44.619Z,88
2022-12-18T20:08:45.556Z,88
2022-12-18T20:13:47.468Z,87
2022-12-18T20:18:49.204Z,87
2022-12-18T20:23:51.176Z,86
2022-12-18T20:28:53.087Z,87
2022-12-18T20:33:57.632Z,87
2022-12-18T20:38:57.362Z,87
2022-12-18T20:43:58.182Z,87
2022-12-18T20:48:59.773Z,87
2022-12-18T20:54:00.823Z,86
2022-12-18T20:59:02.369Z,87
2022-12-18T21:04:04.260Z,86
2022-12-18T21:09:05.395Z,86
2022-12-18T21:14:07.445Z,87
2022-12-18T21:19:09.303Z,87
2022-12-18T21:24:10.978Z,88
2022-12-18T21:29:12.980Z,87
2022-12-18T21:34:14.593Z,87
2022-12-18T21:39:16.025Z,87
2022-12-18T21:44:17.295Z,86
2022-12-18T21:49:19.077Z,86
2022-12-18T21:54:20.341Z,85
2022-12-18T21:59:21.800Z,86
2022-12-18T22:04:23.849Z,86
2022-12-18T22:09:25.198Z,87
2022-12-18T22:14:27.230Z,87
2022-12-18T22:19:29.116Z,87
2022-12-18T22:24:30.349Z,88
2022-12-18T22:29:31.445Z,87
2022-12-18T22:34:36.365Z,87
2022-12-18T22:39:35.415Z,86
2022-12-18T22:44:37.369Z,86
2022-12-18T22:49:38.781Z,86
2022-12-18T22:54:40.358Z,86
2022-12-18T22:59:48.065Z,86
2022-12-18T23:04:49.693Z,87
2022-12-18T23:09:51.260Z,86
2022-12-18T23:14:52.621Z,86
2022-12-18T23:19:54.907Z,85
2022-12-18T23:24:56.119Z,84
2022-12-18T23:29:57.710Z,84
2022-12-18T23:34:59.353Z,85
2022-12-18T23:40:01.240Z,84
2022-12-18T23:45:03.890Z,83
2022-12-18T23:50:04.697Z,82
2022-12-18T23:55:06.692Z,83
